sensor_id;sensor_type;location;lat;lon;timestamp;P1;durP1;ratioP1;P2;durP2;ratioP2
55290;SDS011;41155;39.768;2.712;2023-01-23T00:01:41;33.45;;;17.63;;
55290;SDS011;41155;39.768;2.712;2023-01-23T00:04:08;33.35;;;18.58;;
55290;SDS011;41155;39.768;2.712;2023-01-23T00:06:36;33.38;;;17.38;;
55290;SDS011;41155;39.768;2.712;2023-01-23T00:09:02;37.17;;;17.58;;
55290;SDS011;41155;39.768;2.712;2023-01-23T00:11:28;24.73;;;16.90;;
55290;SDS011;41155;39.768;2.712;2023-01-23T00:13:56;29.38;;;14.73;;
55290;SDS011;41155;39.768;2.712;2023-01-23T00:16:26;31.35;;;14.70;;
55290;SDS011;41155;39.768;2.712;2023-01-23T00:18:56;20.70;;;13.00;;
55290;SDS011;41155;39.768;2.712;2023-01-23T00:21:23;23.88;;;13.38;;
55290;SDS011;41155;39.768;2.712;2023-01-23T00:23:51;30.00;;;15.75;;
55290;SDS011;41155;39.768;2.712;2023-01-23T00:26:20;32.72;;;16.58;;
55290;SDS011;41155;39.768;2.712;2023-01-23T00:28:47;29.80;;;18.25;;
55290;SDS011;41155;39.768;2.712;2023-01-23T00:31:16;27.17;;;17.35;;
55290;SDS011;41155;39.768;2.712;2023-01-23T00:33:46;24.08;;;16.77;;
55290;SDS011;41155;39.768;2.712;2023-01-23T00:36:13;28.05;;;17.98;;
55290;SDS011;41155;39.768;2.712;2023-01-23T00:38:39;18.77;;;14.05;;
55290;SDS011;41155;39.768;2.712;2023-01-23T00:41:06;20.15;;;15.30;;
55290;SDS011;41155;39.768;2.712;2023-01-23T00:43:31;16.17;;;13.13;;
55290;SDS011;41155;39.768;2.712;2023-01-23T00:45:57;17.00;;;13.38;;
55290;SDS011;41155;39.768;2.712;2023-01-23T00:48:23;16.95;;;13.43;;
55290;SDS011;41155;39.768;2.712;2023-01-23T00:50:49;21.13;;;14.23;;
55290;SDS011;41155;39.768;2.712;2023-01-23T00:53:15;15.65;;;12.57;;
55290;SDS011;41155;39.768;2.712;2023-01-23T00:55:40;32.00;;;18.20;;
55290;SDS011;41155;39.768;2.712;2023-01-23T00:58:06;50.00;;;22.17;;
55290;SDS011;41155;39.768;2.712;2023-01-23T01:00:33;48.72;;;23.17;;
55290;SDS011;41155;39.768;2.712;2023-01-23T01:02:59;32.35;;;18.55;;
55290;SDS011;41155;39.768;2.712;2023-01-23T01:05:25;20.80;;;12.55;;
55290;SDS011;41155;39.768;2.712;2023-01-23T01:07:50;20.33;;;13.55;;
55290;SDS011;41155;39.768;2.712;2023-01-23T01:10:16;13.48;;;12.18;;
55290;SDS011;41155;39.768;2.712;2023-01-23T01:12:41;17.35;;;11.13;;
55290;SDS011;41155;39.768;2.712;2023-01-23T01:15:07;23.70;;;13.70;;
55290;SDS011;41155;39.768;2.712;2023-01-23T01:17:34;13.73;;;11.77;;
55290;SDS011;41155;39.768;2.712;2023-01-23T01:20:00;16.75;;;11.60;;
55290;SDS011;41155;39.768;2.712;2023-01-23T01:22:26;17.90;;;14.50;;
55290;SDS011;41155;39.768;2.712;2023-01-23T01:24:51;17.45;;;13.13;;
55290;SDS011;41155;39.768;2.712;2023-01-23T01:27:17;19.73;;;13.30;;
55290;SDS011;41155;39.768;2.712;2023-01-23T01:29:42;15.25;;;13.00;;
55290;SDS011;41155;39.768;2.712;2023-01-23T01:32:07;14.65;;;12.60;;
55290;SDS011;41155;39.768;2.712;2023-01-23T01:34:33;19.15;;;13.63;;
55290;SDS011;41155;39.768;2.712;2023-01-23T01:36:59;25.75;;;15.20;;
55290;SDS011;41155;39.768;2.712;2023-01-23T01:39:24;28.52;;;14.85;;
55290;SDS011;41155;39.768;2.712;2023-01-23T01:41:50;18.90;;;13.23;;
55290;SDS011;41155;39.768;2.712;2023-01-23T01:44:19;20.83;;;13.30;;
55290;SDS011;41155;39.768;2.712;2023-01-23T01:46:46;30.20;;;12.73;;
55290;SDS011;41155;39.768;2.712;2023-01-23T02:02:34;23.95;;;14.88;;
55290;SDS011;41155;39.768;2.712;2023-01-23T02:05:14;48.35;;;17.33;;
55290;SDS011;41155;39.768;2.712;2023-01-23T02:07:47;24.08;;;15.98;;
55290;SDS011;41155;39.768;2.712;2023-01-23T02:10:18;24.50;;;14.63;;
55290;SDS011;41155;39.768;2.712;2023-01-23T02:12:45;35.88;;;13.88;;
55290;SDS011;41155;39.768;2.712;2023-01-23T02:15:12;27.30;;;14.02;;
55290;SDS011;41155;39.768;2.712;2023-01-23T02:17:39;41.53;;;15.88;;
55290;SDS011;41155;39.768;2.712;2023-01-23T02:20:18;19.92;;;14.77;;
55290;SDS011;41155;39.768;2.712;2023-01-23T02:22:47;25.85;;;16.98;;
55290;SDS011;41155;39.768;2.712;2023-01-23T02:28:08;24.63;;;13.63;;
55290;SDS011;41155;39.768;2.712;2023-01-23T02:30:36;23.65;;;13.05;;
55290;SDS011;41155;39.768;2.712;2023-01-23T02:33:10;16.38;;;12.15;;
55290;SDS011;41155;39.768;2.712;2023-01-23T02:35:36;16.90;;;13.70;;
55290;SDS011;41155;39.768;2.712;2023-01-23T02:38:04;19.98;;;14.85;;
55290;SDS011;41155;39.768;2.712;2023-01-23T02:40:32;21.13;;;15.07;;
55290;SDS011;41155;39.768;2.712;2023-01-23T02:43:06;21.25;;;14.63;;
55290;SDS011;41155;39.768;2.712;2023-01-23T02:45:33;21.02;;;13.93;;
55290;SDS011;41155;39.768;2.712;2023-01-23T02:47:59;32.15;;;14.95;;
55290;SDS011;41155;39.768;2.712;2023-01-23T02:50:26;23.90;;;13.40;;
55290;SDS011;41155;39.768;2.712;2023-01-23T02:52:52;21.65;;;15.52;;
55290;SDS011;41155;39.768;2.712;2023-01-23T02:55:19;30.13;;;16.50;;
55290;SDS011;41155;39.768;2.712;2023-01-23T02:57:46;26.05;;;16.02;;
55290;SDS011;41155;39.768;2.712;2023-01-23T03:00:12;27.67;;;16.90;;
55290;SDS011;41155;39.768;2.712;2023-01-23T03:02:43;20.08;;;16.35;;
55290;SDS011;41155;39.768;2.712;2023-01-23T03:05:11;26.02;;;16.08;;
55290;SDS011;41155;39.768;2.712;2023-01-23T03:07:37;26.08;;;15.95;;
55290;SDS011;41155;39.768;2.712;2023-01-23T03:10:03;21.35;;;15.75;;
55290;SDS011;41155;39.768;2.712;2023-01-23T03:12:29;35.25;;;16.02;;
55290;SDS011;41155;39.768;2.712;2023-01-23T03:14:55;22.88;;;15.85;;
55290;SDS011;41155;39.768;2.712;2023-01-23T03:17:22;19.83;;;14.88;;
55290;SDS011;41155;39.768;2.712;2023-01-23T03:19:48;25.23;;;16.75;;
55290;SDS011;41155;39.768;2.712;2023-01-23T03:22:13;27.17;;;15.65;;
55290;SDS011;41155;39.768;2.712;2023-01-23T03:24:39;25.70;;;15.95;;
55290;SDS011;41155;39.768;2.712;2023-01-23T03:27:05;46.67;;;16.20;;
55290;SDS011;41155;39.768;2.712;2023-01-23T03:29:30;27.95;;;15.65;;
55290;SDS011;41155;39.768;2.712;2023-01-23T03:34:40;22.05;;;15.30;;
55290;SDS011;41155;39.768;2.712;2023-01-23T03:37:07;30.25;;;16.17;;
55290;SDS011;41155;39.768;2.712;2023-01-23T03:39:34;30.83;;;14.95;;
55290;SDS011;41155;39.768;2.712;2023-01-23T03:42:18;25.40;;;15.70;;
55290;SDS011;41155;39.768;2.712;2023-01-23T03:44:44;30.52;;;16.85;;
55290;SDS011;41155;39.768;2.712;2023-01-23T03:47:10;30.92;;;16.00;;
55290;SDS011;41155;39.768;2.712;2023-01-23T03:49:35;43.53;;;19.35;;
55290;SDS011;41155;39.768;2.712;2023-01-23T03:52:01;30.88;;;17.45;;
55290;SDS011;41155;39.768;2.712;2023-01-23T03:54:27;41.42;;;19.73;;
55290;SDS011;41155;39.768;2.712;2023-01-23T03:56:52;29.45;;;18.13;;
55290;SDS011;41155;39.768;2.712;2023-01-23T03:59:18;23.13;;;15.52;;
55290;SDS011;41155;39.768;2.712;2023-01-23T04:01:47;28.30;;;15.80;;
55290;SDS011;41155;39.768;2.712;2023-01-23T04:04:13;30.27;;;16.55;;
55290;SDS011;41155;39.768;2.712;2023-01-23T04:06:38;39.28;;;16.98;;
55290;SDS011;41155;39.768;2.712;2023-01-23T04:09:04;32.25;;;17.02;;
55290;SDS011;41155;39.768;2.712;2023-01-23T04:11:29;23.25;;;14.45;;
55290;SDS011;41155;39.768;2.712;2023-01-23T04:13:55;24.17;;;15.15;;
55290;SDS011;41155;39.768;2.712;2023-01-23T04:16:21;42.05;;;17.42;;
55290;SDS011;41155;39.768;2.712;2023-01-23T04:18:47;25.25;;;15.55;;
55290;SDS011;41155;39.768;2.712;2023-01-23T04:21:13;32.83;;;16.40;;
55290;SDS011;41155;39.768;2.712;2023-01-23T04:23:39;24.88;;;14.88;;
55290;SDS011;41155;39.768;2.712;2023-01-23T04:26:04;36.72;;;16.15;;
55290;SDS011;41155;39.768;2.712;2023-01-23T04:28:30;36.42;;;16.65;;
55290;SDS011;41155;39.768;2.712;2023-01-23T04:30:55;29.88;;;15.50;;
55290;SDS011;41155;39.768;2.712;2023-01-23T04:33:21;33.30;;;16.13;;
55290;SDS011;41155;39.768;2.712;2023-01-23T04:35:53;28.00;;;14.52;;
55290;SDS011;41155;39.768;2.712;2023-01-23T04:38:29;36.83;;;16.17;;
55290;SDS011;41155;39.768;2.712;2023-01-23T04:40:55;39.67;;;16.10;;
55290;SDS011;41155;39.768;2.712;2023-01-23T04:43:21;49.75;;;16.00;;
55290;SDS011;41155;39.768;2.712;2023-01-23T04:45:50;51.28;;;17.63;;
55290;SDS011;41155;39.768;2.712;2023-01-23T04:48:16;35.58;;;17.83;;
55290;SDS011;41155;39.768;2.712;2023-01-23T04:50:42;46.90;;;18.48;;
55290;SDS011;41155;39.768;2.712;2023-01-23T04:53:07;40.20;;;16.27;;
55290;SDS011;41155;39.768;2.712;2023-01-23T04:55:33;41.72;;;16.38;;
55290;SDS011;41155;39.768;2.712;2023-01-23T04:57:59;38.05;;;18.77;;
55290;SDS011;41155;39.768;2.712;2023-01-23T05:00:25;30.48;;;15.60;;
55290;SDS011;41155;39.768;2.712;2023-01-23T05:02:52;36.55;;;17.25;;
55290;SDS011;41155;39.768;2.712;2023-01-23T05:05:19;35.63;;;16.15;;
55290;SDS011;41155;39.768;2.712;2023-01-23T05:07:45;25.08;;;15.98;;
55290;SDS011;41155;39.768;2.712;2023-01-23T05:10:12;35.28;;;16.30;;
55290;SDS011;41155;39.768;2.712;2023-01-23T05:12:38;33.47;;;16.13;;
55290;SDS011;41155;39.768;2.712;2023-01-23T05:15:04;34.80;;;15.85;;
55290;SDS011;41155;39.768;2.712;2023-01-23T05:17:31;38.47;;;15.48;;
55290;SDS011;41155;39.768;2.712;2023-01-23T05:19:57;31.15;;;15.80;;
55290;SDS011;41155;39.768;2.712;2023-01-23T05:22:22;34.97;;;16.30;;
55290;SDS011;41155;39.768;2.712;2023-01-23T05:24:48;34.60;;;19.10;;
55290;SDS011;41155;39.768;2.712;2023-01-23T05:27:13;36.05;;;18.05;;
55290;SDS011;41155;39.768;2.712;2023-01-23T05:29:39;35.83;;;19.23;;
55290;SDS011;41155;39.768;2.712;2023-01-23T05:32:04;33.67;;;18.75;;
55290;SDS011;41155;39.768;2.712;2023-01-23T05:34:30;41.47;;;19.02;;
55290;SDS011;41155;39.768;2.712;2023-01-23T05:36:55;38.35;;;17.25;;
55290;SDS011;41155;39.768;2.712;2023-01-23T05:39:21;30.73;;;16.27;;
55290;SDS011;41155;39.768;2.712;2023-01-23T05:41:46;28.15;;;17.70;;
55290;SDS011;41155;39.768;2.712;2023-01-23T05:44:12;34.83;;;17.02;;
55290;SDS011;41155;39.768;2.712;2023-01-23T05:46:37;51.53;;;17.75;;
55290;SDS011;41155;39.768;2.712;2023-01-23T05:49:03;41.03;;;20.48;;
55290;SDS011;41155;39.768;2.712;2023-01-23T05:51:31;53.47;;;23.52;;
55290;SDS011;41155;39.768;2.712;2023-01-23T05:54:00;46.92;;;22.38;;
55290;SDS011;41155;39.768;2.712;2023-01-23T05:56:27;60.42;;;21.45;;
55290;SDS011;41155;39.768;2.712;2023-01-23T05:58:53;54.28;;;21.30;;
55290;SDS011;41155;39.768;2.712;2023-01-23T06:01:18;46.40;;;22.60;;
55290;SDS011;41155;39.768;2.712;2023-01-23T06:03:44;52.78;;;19.23;;
55290;SDS011;41155;39.768;2.712;2023-01-23T06:06:10;65.07;;;19.15;;
55290;SDS011;41155;39.768;2.712;2023-01-23T06:08:35;44.08;;;17.35;;
55290;SDS011;41155;39.768;2.712;2023-01-23T06:11:01;47.47;;;18.98;;
55290;SDS011;41155;39.768;2.712;2023-01-23T06:13:27;39.97;;;18.73;;
55290;SDS011;41155;39.768;2.712;2023-01-23T06:15:53;53.58;;;20.33;;
55290;SDS011;41155;39.768;2.712;2023-01-23T06:18:19;41.00;;;19.63;;
55290;SDS011;41155;39.768;2.712;2023-01-23T06:20:45;53.00;;;21.90;;
55290;SDS011;41155;39.768;2.712;2023-01-23T06:23:10;48.85;;;24.35;;
55290;SDS011;41155;39.768;2.712;2023-01-23T06:25:36;62.05;;;21.55;;
55290;SDS011;41155;39.768;2.712;2023-01-23T06:28:02;36.65;;;19.58;;
55290;SDS011;41155;39.768;2.712;2023-01-23T06:30:28;32.95;;;17.60;;
55290;SDS011;41155;39.768;2.712;2023-01-23T06:32:53;46.90;;;18.83;;
55290;SDS011;41155;39.768;2.712;2023-01-23T06:35:19;42.20;;;20.55;;
55290;SDS011;41155;39.768;2.712;2023-01-23T06:37:45;45.92;;;20.08;;
55290;SDS011;41155;39.768;2.712;2023-01-23T06:40:10;67.70;;;37.28;;
55290;SDS011;41155;39.768;2.712;2023-01-23T06:42:39;56.05;;;32.88;;
55290;SDS011;41155;39.768;2.712;2023-01-23T06:45:06;61.88;;;34.08;;
55290;SDS011;41155;39.768;2.712;2023-01-23T06:47:33;65.57;;;29.25;;
55290;SDS011;41155;39.768;2.712;2023-01-23T06:49:59;54.78;;;29.10;;
55290;SDS011;41155;39.768;2.712;2023-01-23T06:52:26;74.30;;;38.35;;
55290;SDS011;41155;39.768;2.712;2023-01-23T06:54:52;78.03;;;39.45;;
55290;SDS011;41155;39.768;2.712;2023-01-23T06:57:18;48.05;;;29.13;;
55290;SDS011;41155;39.768;2.712;2023-01-23T06:59:43;48.50;;;25.80;;
55290;SDS011;41155;39.768;2.712;2023-01-23T07:02:12;47.75;;;22.83;;
55290;SDS011;41155;39.768;2.712;2023-01-23T07:04:38;58.20;;;25.40;;
55290;SDS011;41155;39.768;2.712;2023-01-23T07:07:04;46.50;;;24.77;;
55290;SDS011;41155;39.768;2.712;2023-01-23T07:09:29;48.72;;;26.35;;
55290;SDS011;41155;39.768;2.712;2023-01-23T07:11:55;50.22;;;22.75;;
55290;SDS011;41155;39.768;2.712;2023-01-23T07:14:21;45.22;;;23.85;;
55290;SDS011;41155;39.768;2.712;2023-01-23T07:16:46;35.15;;;21.52;;
55290;SDS011;41155;39.768;2.712;2023-01-23T07:19:12;51.78;;;23.05;;
55290;SDS011;41155;39.768;2.712;2023-01-23T07:21:37;42.08;;;21.15;;
55290;SDS011;41155;39.768;2.712;2023-01-23T07:24:03;50.83;;;21.75;;
55290;SDS011;41155;39.768;2.712;2023-01-23T07:26:29;46.35;;;21.70;;
55290;SDS011;41155;39.768;2.712;2023-01-23T07:28:55;36.42;;;19.80;;
55290;SDS011;41155;39.768;2.712;2023-01-23T07:31:20;45.10;;;20.77;;
55290;SDS011;41155;39.768;2.712;2023-01-23T07:33:49;63.25;;;20.70;;
55290;SDS011;41155;39.768;2.712;2023-01-23T07:36:14;53.97;;;25.73;;
55290;SDS011;41155;39.768;2.712;2023-01-23T07:38:40;66.68;;;28.90;;
55290;SDS011;41155;39.768;2.712;2023-01-23T07:41:05;66.30;;;20.55;;
55290;SDS011;41155;39.768;2.712;2023-01-23T07:43:31;49.55;;;22.38;;
55290;SDS011;41155;39.768;2.712;2023-01-23T07:45:57;68.03;;;30.25;;
55290;SDS011;41155;39.768;2.712;2023-01-23T07:48:23;43.85;;;23.88;;
55290;SDS011;41155;39.768;2.712;2023-01-23T07:50:49;40.42;;;19.77;;
55290;SDS011;41155;39.768;2.712;2023-01-23T07:53:14;39.63;;;23.00;;
55290;SDS011;41155;39.768;2.712;2023-01-23T07:55:40;48.97;;;21.42;;
55290;SDS011;41155;39.768;2.712;2023-01-23T07:58:05;48.03;;;20.95;;
55290;SDS011;41155;39.768;2.712;2023-01-23T08:00:31;55.20;;;20.35;;
55290;SDS011;41155;39.768;2.712;2023-01-23T08:02:56;42.83;;;20.15;;
55290;SDS011;41155;39.768;2.712;2023-01-23T08:05:22;73.03;;;34.42;;
55290;SDS011;41155;39.768;2.712;2023-01-23T08:07:47;69.57;;;38.25;;
55290;SDS011;41155;39.768;2.712;2023-01-23T08:10:13;66.63;;;31.00;;
55290;SDS011;41155;39.768;2.712;2023-01-23T08:12:38;67.03;;;28.90;;
55290;SDS011;41155;39.768;2.712;2023-01-23T08:15:04;60.17;;;28.30;;
55290;SDS011;41155;39.768;2.712;2023-01-23T08:17:30;55.97;;;24.20;;
55290;SDS011;41155;39.768;2.712;2023-01-23T08:19:56;53.35;;;24.02;;
55290;SDS011;41155;39.768;2.712;2023-01-23T08:22:21;36.38;;;19.20;;
55290;SDS011;41155;39.768;2.712;2023-01-23T08:24:47;42.10;;;16.52;;
55290;SDS011;41155;39.768;2.712;2023-01-23T08:27:12;47.30;;;20.48;;
55290;SDS011;41155;39.768;2.712;2023-01-23T08:29:37;40.35;;;18.92;;
55290;SDS011;41155;39.768;2.712;2023-01-23T08:32:03;37.40;;;18.42;;
55290;SDS011;41155;39.768;2.712;2023-01-23T08:34:29;33.65;;;14.70;;
55290;SDS011;41155;39.768;2.712;2023-01-23T08:36:54;35.20;;;14.48;;
55290;SDS011;41155;39.768;2.712;2023-01-23T08:39:19;33.75;;;15.60;;
55290;SDS011;41155;39.768;2.712;2023-01-23T08:41:45;46.33;;;13.75;;
55290;SDS011;41155;39.768;2.712;2023-01-23T08:44:11;34.30;;;15.68;;
55290;SDS011;41155;39.768;2.712;2023-01-23T08:46:36;29.38;;;13.73;;
55290;SDS011;41155;39.768;2.712;2023-01-23T08:49:02;41.20;;;13.85;;
55290;SDS011;41155;39.768;2.712;2023-01-23T08:51:29;35.92;;;14.18;;
55290;SDS011;41155;39.768;2.712;2023-01-23T08:53:54;28.70;;;12.88;;
55290;SDS011;41155;39.768;2.712;2023-01-23T08:56:21;40.88;;;14.23;;
55290;SDS011;41155;39.768;2.712;2023-01-23T08:58:47;29.63;;;13.27;;
55290;SDS011;41155;39.768;2.712;2023-01-23T09:01:23;38.17;;;13.32;;
55290;SDS011;41155;39.768;2.712;2023-01-23T09:03:50;32.95;;;11.60;;
55290;SDS011;41155;39.768;2.712;2023-01-23T09:06:17;28.10;;;14.80;;
55290;SDS011;41155;39.768;2.712;2023-01-23T09:08:44;38.47;;;14.20;;
55290;SDS011;41155;39.768;2.712;2023-01-23T09:11:10;32.75;;;13.95;;
55290;SDS011;41155;39.768;2.712;2023-01-23T09:13:37;28.98;;;13.15;;
55290;SDS011;41155;39.768;2.712;2023-01-23T09:16:03;32.20;;;13.45;;
55290;SDS011;41155;39.768;2.712;2023-01-23T09:18:29;33.13;;;13.38;;
55290;SDS011;41155;39.768;2.712;2023-01-23T09:20:55;33.75;;;15.98;;
55290;SDS011;41155;39.768;2.712;2023-01-23T09:23:21;44.53;;;15.68;;
55290;SDS011;41155;39.768;2.712;2023-01-23T09:25:46;41.25;;;12.45;;
55290;SDS011;41155;39.768;2.712;2023-01-23T09:28:12;38.42;;;12.52;;
55290;SDS011;41155;39.768;2.712;2023-01-23T09:30:37;26.75;;;11.88;;
55290;SDS011;41155;39.768;2.712;2023-01-23T09:33:03;39.50;;;14.73;;
55290;SDS011;41155;39.768;2.712;2023-01-23T09:35:29;33.55;;;14.15;;
55290;SDS011;41155;39.768;2.712;2023-01-23T09:37:54;33.45;;;18.40;;
55290;SDS011;41155;39.768;2.712;2023-01-23T09:40:29;43.80;;;16.13;;
55290;SDS011;41155;39.768;2.712;2023-01-23T09:43:02;45.05;;;13.70;;
55290;SDS011;41155;39.768;2.712;2023-01-23T09:45:37;31.50;;;13.38;;
55290;SDS011;41155;39.768;2.712;2023-01-23T09:48:15;36.38;;;11.45;;
55290;SDS011;41155;39.768;2.712;2023-01-23T09:50:53;24.10;;;11.55;;
55290;SDS011;41155;39.768;2.712;2023-01-23T09:53:34;20.77;;;11.60;;
55290;SDS011;41155;39.768;2.712;2023-01-23T09:59:01;35.22;;;12.55;;
55290;SDS011;41155;39.768;2.712;2023-01-23T10:01:44;49.03;;;12.05;;
55290;SDS011;41155;39.768;2.712;2023-01-23T10:04:10;20.58;;;11.52;;
55290;SDS011;41155;39.768;2.712;2023-01-23T10:09:25;46.55;;;11.23;;
55290;SDS011;41155;39.768;2.712;2023-01-23T10:12:00;38.30;;;13.32;;
55290;SDS011;41155;39.768;2.712;2023-01-23T10:17:11;24.77;;;12.30;;
55290;SDS011;41155;39.768;2.712;2023-01-23T10:25:21;29.23;;;12.50;;
55290;SDS011;41155;39.768;2.712;2023-01-23T10:27:51;28.50;;;12.38;;
55290;SDS011;41155;39.768;2.712;2023-01-23T10:38:13;37.55;;;11.90;;
55290;SDS011;41155;39.768;2.712;2023-01-23T10:40:47;46.83;;;13.23;;
55290;SDS011;41155;39.768;2.712;2023-01-23T10:43:34;38.15;;;12.60;;
55290;SDS011;41155;39.768;2.712;2023-01-23T10:46:00;34.85;;;12.38;;
55290;SDS011;41155;39.768;2.712;2023-01-23T10:48:40;35.55;;;13.05;;
55290;SDS011;41155;39.768;2.712;2023-01-23T10:51:24;23.63;;;13.45;;
55290;SDS011;41155;39.768;2.712;2023-01-23T10:56:27;33.22;;;13.80;;
55290;SDS011;41155;39.768;2.712;2023-01-23T10:58:54;31.98;;;11.80;;
55290;SDS011;41155;39.768;2.712;2023-01-23T11:01:28;32.40;;;12.00;;
55290;SDS011;41155;39.768;2.712;2023-01-23T11:03:55;33.17;;;13.05;;
55290;SDS011;41155;39.768;2.712;2023-01-23T11:06:22;25.30;;;12.48;;
55290;SDS011;41155;39.768;2.712;2023-01-23T11:11:20;30.25;;;10.82;;
55290;SDS011;41155;39.768;2.712;2023-01-23T11:13:49;46.38;;;11.98;;
55290;SDS011;41155;39.768;2.712;2023-01-23T11:16:28;46.67;;;10.05;;
55290;SDS011;41155;39.768;2.712;2023-01-23T11:18:55;30.92;;;10.93;;
55290;SDS011;41155;39.768;2.712;2023-01-23T11:21:30;27.88;;;12.75;;
55290;SDS011;41155;39.768;2.712;2023-01-23T11:26:45;32.67;;;12.25;;
55290;SDS011;41155;39.768;2.712;2023-01-23T11:29:21;33.45;;;10.13;;
55290;SDS011;41155;39.768;2.712;2023-01-23T11:31:49;27.35;;;11.60;;
55290;SDS011;41155;39.768;2.712;2023-01-23T11:34:20;36.90;;;10.15;;
55290;SDS011;41155;39.768;2.712;2023-01-23T11:42:15;23.33;;;9.82;;
55290;SDS011;41155;39.768;2.712;2023-01-23T11:44:42;24.25;;;8.60;;
55290;SDS011;41155;39.768;2.712;2023-01-23T11:56:12;20.38;;;8.57;;
55290;SDS011;41155;39.768;2.712;2023-01-23T12:23:29;34.13;;;8.00;;
55290;SDS011;41155;39.768;2.712;2023-01-23T12:26:13;13.63;;;7.03;;
55290;SDS011;41155;39.768;2.712;2023-01-23T12:36:37;20.83;;;8.55;;
55290;SDS011;41155;39.768;2.712;2023-01-23T12:42:06;31.33;;;7.45;;
55290;SDS011;41155;39.768;2.712;2023-01-23T12:44:40;17.08;;;8.20;;
55290;SDS011;41155;39.768;2.712;2023-01-23T12:47:15;19.17;;;6.72;;
55290;SDS011;41155;39.768;2.712;2023-01-23T12:52:26;15.00;;;7.25;;
55290;SDS011;41155;39.768;2.712;2023-01-23T12:58:14;18.92;;;7.10;;
55290;SDS011;41155;39.768;2.712;2023-01-23T13:16:56;23.52;;;9.05;;
55290;SDS011;41155;39.768;2.712;2023-01-23T13:19:29;22.63;;;9.45;;
55290;SDS011;41155;39.768;2.712;2023-01-23T13:24:53;28.27;;;11.18;;
55290;SDS011;41155;39.768;2.712;2023-01-23T13:27:45;27.27;;;10.88;;
55290;SDS011;41155;39.768;2.712;2023-01-23T13:43:41;23.42;;;11.05;;
55290;SDS011;41155;39.768;2.712;2023-01-23T13:52:00;26.23;;;11.48;;
55290;SDS011;41155;39.768;2.712;2023-01-23T13:54:30;16.40;;;9.93;;
55290;SDS011;41155;39.768;2.712;2023-01-23T13:57:17;17.50;;;14.43;;
55290;SDS011;41155;39.768;2.712;2023-01-23T13:59:47;29.70;;;17.40;;
55290;SDS011;41155;39.768;2.712;2023-01-23T14:05:12;101.90;;;76.22;;
55290;SDS011;41155;39.768;2.712;2023-01-23T14:07:41;152.07;;;106.82;;
55290;SDS011;41155;39.768;2.712;2023-01-23T14:12:40;33.20;;;25.48;;
55290;SDS011;41155;39.768;2.712;2023-01-23T14:18:02;99.07;;;62.72;;
55290;SDS011;41155;39.768;2.712;2023-01-23T14:20:29;39.50;;;26.20;;
55290;SDS011;41155;39.768;2.712;2023-01-23T14:23:02;12.30;;;11.25;;
55290;SDS011;41155;39.768;2.712;2023-01-23T14:25:27;12.75;;;11.05;;
55290;SDS011;41155;39.768;2.712;2023-01-23T14:28:03;21.48;;;11.13;;
55290;SDS011;41155;39.768;2.712;2023-01-23T14:30:29;26.58;;;12.98;;
55290;SDS011;41155;39.768;2.712;2023-01-23T14:32:56;17.92;;;13.30;;
55290;SDS011;41155;39.768;2.712;2023-01-23T14:37:53;12.98;;;11.82;;
55290;SDS011;41155;39.768;2.712;2023-01-23T14:40:22;10.27;;;9.45;;
55290;SDS011;41155;39.768;2.712;2023-01-23T14:42:53;13.25;;;12.10;;
55290;SDS011;41155;39.768;2.712;2023-01-23T14:45:23;13.38;;;12.25;;
55290;SDS011;41155;39.768;2.712;2023-01-23T14:47:52;15.88;;;14.63;;
55290;SDS011;41155;39.768;2.712;2023-01-23T14:50:18;8.50;;;8.00;;
55290;SDS011;41155;39.768;2.712;2023-01-23T14:52:55;21.30;;;8.38;;
55290;SDS011;41155;39.768;2.712;2023-01-23T14:55:28;24.88;;;8.68;;
55290;SDS011;41155;39.768;2.712;2023-01-23T14:57:55;8.50;;;7.90;;
55290;SDS011;41155;39.768;2.712;2023-01-23T15:00:23;10.88;;;8.98;;
55290;SDS011;41155;39.768;2.712;2023-01-23T15:02:50;51.17;;;10.73;;
55290;SDS011;41155;39.768;2.712;2023-01-23T15:05:22;14.70;;;11.88;;
55290;SDS011;41155;39.768;2.712;2023-01-23T15:08:02;57.75;;;22.08;;
55290;SDS011;41155;39.768;2.712;2023-01-23T15:15:47;114.03;;;20.92;;
55290;SDS011;41155;39.768;2.712;2023-01-23T15:18:21;39.67;;;26.63;;
55290;SDS011;41155;39.768;2.712;2023-01-23T15:20:53;29.52;;;23.10;;
55290;SDS011;41155;39.768;2.712;2023-01-23T15:28:40;15.55;;;13.40;;
55290;SDS011;41155;39.768;2.712;2023-01-23T15:31:18;16.08;;;12.05;;
55290;SDS011;41155;39.768;2.712;2023-01-23T15:33:56;13.23;;;11.98;;
55290;SDS011;41155;39.768;2.712;2023-01-23T15:36:36;15.60;;;14.18;;
55290;SDS011;41155;39.768;2.712;2023-01-23T15:39:02;16.85;;;14.05;;
55290;SDS011;41155;39.768;2.712;2023-01-23T15:44:25;28.17;;;20.08;;
55290;SDS011;41155;39.768;2.712;2023-01-23T15:46:52;26.25;;;19.27;;
55290;SDS011;41155;39.768;2.712;2023-01-23T15:49:18;32.53;;;23.88;;
55290;SDS011;41155;39.768;2.712;2023-01-23T15:51:44;31.35;;;28.17;;
55290;SDS011;41155;39.768;2.712;2023-01-23T15:54:19;17.35;;;15.68;;
55290;SDS011;41155;39.768;2.712;2023-01-23T15:56:48;14.45;;;13.32;;
55290;SDS011;41155;39.768;2.712;2023-01-23T15:59:14;18.45;;;16.60;;
55290;SDS011;41155;39.768;2.712;2023-01-23T16:01:41;17.38;;;15.65;;
55290;SDS011;41155;39.768;2.712;2023-01-23T16:04:07;15.73;;;12.70;;
55290;SDS011;41155;39.768;2.712;2023-01-23T16:06:32;20.30;;;18.38;;
55290;SDS011;41155;39.768;2.712;2023-01-23T16:08:58;22.08;;;19.80;;
55290;SDS011;41155;39.768;2.712;2023-01-23T16:11:25;26.02;;;22.02;;
55290;SDS011;41155;39.768;2.712;2023-01-23T16:13:53;30.35;;;24.75;;
55290;SDS011;41155;39.768;2.712;2023-01-23T16:16:18;34.63;;;28.13;;
55290;SDS011;41155;39.768;2.712;2023-01-23T16:18:44;43.38;;;33.13;;
55290;SDS011;41155;39.768;2.712;2023-01-23T16:21:13;40.90;;;34.67;;
55290;SDS011;41155;39.768;2.712;2023-01-23T16:23:40;45.72;;;34.97;;
55290;SDS011;41155;39.768;2.712;2023-01-23T16:26:08;35.20;;;30.63;;
55290;SDS011;41155;39.768;2.712;2023-01-23T16:28:46;33.42;;;27.70;;
55290;SDS011;41155;39.768;2.712;2023-01-23T16:31:12;30.05;;;26.80;;
55290;SDS011;41155;39.768;2.712;2023-01-23T16:33:38;36.38;;;29.58;;
55290;SDS011;41155;39.768;2.712;2023-01-23T16:36:05;37.17;;;32.78;;
55290;SDS011;41155;39.768;2.712;2023-01-23T16:38:31;38.58;;;24.38;;
55290;SDS011;41155;39.768;2.712;2023-01-23T16:40:58;25.75;;;23.00;;
55290;SDS011;41155;39.768;2.712;2023-01-23T16:43:25;23.25;;;21.05;;
55290;SDS011;41155;39.768;2.712;2023-01-23T16:45:51;28.23;;;25.45;;
55290;SDS011;41155;39.768;2.712;2023-01-23T16:48:18;28.05;;;25.17;;
55290;SDS011;41155;39.768;2.712;2023-01-23T16:50:48;43.88;;;27.42;;
55290;SDS011;41155;39.768;2.712;2023-01-23T16:53:26;34.67;;;26.23;;
55290;SDS011;41155;39.768;2.712;2023-01-23T16:56:05;33.40;;;28.35;;
55290;SDS011;41155;39.768;2.712;2023-01-23T16:58:34;37.03;;;32.17;;
55290;SDS011;41155;39.768;2.712;2023-01-23T17:01:15;32.00;;;28.77;;
55290;SDS011;41155;39.768;2.712;2023-01-23T17:03:44;42.67;;;25.38;;
55290;SDS011;41155;39.768;2.712;2023-01-23T17:06:16;21.90;;;19.80;;
55290;SDS011;41155;39.768;2.712;2023-01-23T17:08:41;51.35;;;37.45;;
55290;SDS011;41155;39.768;2.712;2023-01-23T17:11:09;113.75;;;96.70;;
55290;SDS011;41155;39.768;2.712;2023-01-23T17:13:45;58.13;;;51.95;;